Time;durP1;ratioP1;P1;durP2;ratioP2;P2;SDS_P1;SDS_P2;PMS_P1;PMS_P2;Temp;Humidity;BMP_temperature;BMP_pressure;BME280_temperature;BME280_humidity;BME280_pressure;Samples;Min_cycle;Max_cycle;Signal;HPM_P1;HPM_P2
2023/05/27 00:02:07;;;;;;;18.77;3.97;;;10.60;99.90;;;;;;5072265;28;20173;-69
2023/05/27 00:04:32;;;;;;;12.13;4.00;;;10.70;99.90;;;;;;5073010;28;20246;-71
2023/05/27 00:06:58;;;;;;;11.37;4.00;;;10.60;99.90;;;;;;5071884;28;20185;-67
2023/05/27 00:09:24;;;;;;;13.67;4.10;;;10.50;1.00;;;;;;5088655;28;20174;-71
2023/05/27 00:11:49;;;;;;;9.17;4.30;;;10.50;1.00;;;;;;5071372;28;20178;-67
2023/05/27 00:14:17;;;;;;;7.50;3.70;;;10.40;99.90;;;;;;5071856;28;20615;-68
2023/05/27 00:16:43;;;;;;;8.33;3.60;;;10.30;1.00;;;;;;5072977;28;20201;-69
2023/05/27 00:19:08;;;;;;;12.80;5.13;;;10.30;1.00;;;;;;5077104;28;20732;-71
2023/05/27 00:21:34;;;;;;;11.70;3.57;;;10.20;1.00;;;;;;5076069;28;20371;-67
2023/05/27 00:24:00;;;;;;;9.23;3.83;;;10.30;1.00;;;;;;5076763;28;20196;-71
2023/05/27 00:26:29;;;;;;;12.47;5.27;;;10.30;1.00;;;;;;5076613;28;20189;-68
2023/05/27 00:28:54;;;;;;;11.73;3.50;;;10.20;1.00;;;;;;5076537;28;20188;-71
2023/05/27 00:31:20;;;;;;;7.87;3.30;;;10.20;1.00;;;;;;5076005;28;20404;-71
2023/05/27 00:33:46;;;;;;;11.10;3.87;;;10.20;1.00;;;;;;5075999;28;20615;-72
2023/05/27 00:36:11;;;;;;;14.77;4.67;;;10.20;1.00;;;;;;5076145;28;20578;-72
2023/05/27 00:38:37;;;;;;;13.17;3.73;;;10.20;1.00;;;;;;5075177;28;20170;-72
2023/05/27 00:41:04;;;;;;;7.70;3.90;;;10.10;1.00;;;;;;5074507;28;20534;-69
2023/05/27 00:43:30;;;;;;;10.10;3.73;;;10.10;1.00;;;;;;5076583;28;20186;-68
2023/05/27 00:45:56;;;;;;;10.30;4.57;;;10.10;1.00;;;;;;5076567;28;20395;-71
2023/05/27 00:48:22;;;;;;;12.73;4.57;;;10.10;1.00;;;;;;5075465;28;20396;-72
2023/05/27 00:50:48;;;;;;;13.67;4.40;;;10.10;1.00;;;;;;5074097;28;20980;-68
2023/05/27 00:53:16;;;;;;;7.37;3.60;;;10.00;1.00;;;;;;5076105;28;20198;-68
2023/05/27 00:55:42;;;;;;;7.73;4.20;;;10.00;1.00;;;;;;5075722;28;20373;-72
2023/05/27 00:58:09;;;;;;;12.60;4.43;;;10.00;1.00;;;;;;5074959;28;20408;-68
2023/05/27 01:00:37;;;;;;;5.27;3.80;;;10.00;1.00;;;;;;5075277;28;20383;-70
2023/05/27 01:03:04;;;;;;;12.13;5.17;;;9.90;1.00;;;;;;5076083;28;20919;-71
2023/05/27 01:05:30;;;;;;;15.60;4.33;;;9.90;1.00;;;;;;5076237;28;20377;-71
2023/05/27 01:08:04;;;;;;;11.03;3.80;;;9.90;1.00;;;;;;5074679;28;20395;-71
2023/05/27 01:10:39;;;;;;;16.70;6.20;;;9.80;1.00;;;;;;5074867;28;20418;-72
2023/05/27 01:13:23;;;;;;;7.53;3.97;;;9.80;1.00;;;;;;5074329;28;20398;-70
2023/05/27 01:15:51;;;;;;;6.90;3.70;;;9.80;1.00;;;;;;5075858;28;20419;-69
2023/05/27 01:18:19;;;;;;;10.80;3.70;;;9.70;1.00;;;;;;5074891;28;20390;-71
2023/05/27 01:20:47;;;;;;;6.53;4.03;;;9.60;1.00;;;;;;5074932;28;20367;-69
2023/05/27 01:23:13;;;;;;;7.97;4.40;;;9.60;1.00;;;;;;5075608;28;20401;-71
2023/05/27 01:25:39;;;;;;;11.57;4.57;;;9.50;1.00;;;;;;5075747;28;20375;-71
2023/05/27 01:28:05;;;;;;;6.60;3.90;;;9.50;1.00;;;;;;5074515;28;20457;-71
2023/05/27 01:30:33;;;;;;;11.23;4.33;;;9.50;1.00;;;;;;5074091;28;20411;-71
2023/05/27 01:33:09;;;;;;;8.77;4.20;;;9.40;1.00;;;;;;5075580;28;20396;-68
2023/05/27 01:35:46;;;;;;;7.70;3.97;;;9.40;1.00;;;;;;5075541;28;20379;-71
2023/05/27 01:38:18;;;;;;;8.43;4.93;;;9.30;1.00;;;;;;5075603;28;20378;-65
2023/05/27 01:40:45;;;;;;;11.70;5.23;;;9.30;1.00;;;;;;5074657;28;20391;-69
2023/05/27 01:43:12;;;;;;;10.50;4.30;;;9.30;1.00;;;;;;5074620;28;20437;-69
2023/05/27 01:45:38;;;;;;;12.60;5.30;;;9.30;1.00;;;;;;5075465;28;20382;-67
2023/05/27 01:48:04;;;;;;;10.67;4.10;;;9.30;1.00;;;;;;5075464;28;20403;-71
2023/05/27 01:50:30;;;;;;;8.23;5.47;;;9.30;1.00;;;;;;5074177;28;20724;-68
2023/05/27 01:52:56;;;;;;;13.43;5.63;;;9.30;1.00;;;;;;5075258;28;20452;-69
2023/05/27 01:55:22;;;;;;;13.90;5.80;;;9.20;1.00;;;;;;5075190;28;20199;-69
2023/05/27 01:57:48;;;;;;;11.27;5.47;;;9.30;1.00;;;;;;5075218;28;20459;-65
2023/05/27 02:00:15;;;;;;;11.57;5.20;;;9.30;1.00;;;;;;5073458;28;20186;-69
2023/05/27 02:02:41;;;;;;;13.43;5.77;;;9.20;1.00;;;;;;5075178;28;20186;-66
2023/05/27 02:05:07;;;;;;;13.17;5.47;;;9.20;1.00;;;;;;5074920;28;20421;-67
2023/05/27 02:07:33;;;;;;;14.80;5.03;;;9.20;1.00;;;;;;5074950;28;20520;-69
2023/05/27 02:09:59;;;;;;;10.20;5.57;;;9.10;1.00;;;;;;5072930;28;20434;-66
2023/05/27 02:12:24;;;;;;;5.50;4.93;;;9.10;1.00;;;;;;5074180;28;20419;-68
2023/05/27 02:14:51;;;;;;;13.63;5.37;;;9.00;1.00;;;;;;5073297;28;20184;-68
2023/05/27 02:17:17;;;;;;;8.20;4.63;;;9.00;1.00;;;;;;5072675;28;20233;-69
2023/05/27 02:19:43;;;;;;;16.93;6.03;;;9.00;1.00;;;;;;5074653;28;20928;-68
2023/05/27 02:22:12;;;;;;;12.53;5.40;;;9.00;1.00;;;;;;5073765;28;20386;-65
2023/05/27 02:24:38;;;;;;;10.20;5.03;;;9.00;1.00;;;;;;5074514;28;20431;-64
2023/05/27 02:27:04;;;;;;;17.00;5.30;;;8.90;1.00;;;;;;5074191;28;20766;-66
2023/05/27 02:29:29;;;;;;;8.30;3.43;;;8.90;1.00;;;;;;5074285;28;20254;-69
2023/05/27 02:31:55;;;;;;;12.53;4.47;;;8.90;1.00;;;;;;5072758;28;20202;-66
2023/05/27 02:34:21;;;;;;;14.63;4.53;;;8.90;1.00;;;;;;5074557;28;20271;-67
2023/05/27 02:36:47;;;;;;;11.33;5.53;;;8.90;1.00;;;;;;5074452;28;20544;-68
2023/05/27 02:39:12;;;;;;;11.27;5.03;;;8.90;1.00;;;;;;5074406;28;20536;-66
2023/05/27 02:41:38;;;;;;;10.20;4.70;;;8.90;1.00;;;;;;5073139;28;20226;-65
2023/05/27 02:44:05;;;;;;;9.70;3.60;;;8.90;1.00;;;;;;5073619;28;20194;-66
2023/05/27 02:46:33;;;;;;;12.83;5.10;;;8.90;1.00;;;;;;5076781;28;20641;-68
2023/05/27 02:48:59;;;;;;;17.50;5.07;;;8.80;1.00;;;;;;5094508;28;20396;-66
2023/05/27 02:51:25;;;;;;;10.77;4.23;;;8.90;1.00;;;;;;5093584;28;20403;-68
2023/05/27 02:53:50;;;;;;;7.50;3.73;;;8.80;1.00;;;;;;5094274;28;20424;-65
2023/05/27 02:56:17;;;;;;;8.37;4.10;;;8.80;1.00;;;;;;5094349;28;20207;-65
2023/05/27 02:58:43;;;;;;;6.57;4.23;;;8.80;1.00;;;;;;5094371;28;20194;-68
2023/05/27 03:01:09;;;;;;;12.33;5.37;;;8.80;1.00;;;;;;5093080;28;20420;-68
2023/05/27 03:03:35;;;;;;;12.20;4.60;;;8.80;1.00;;;;;;5078841;28;20204;-68
2023/05/27 03:06:00;;;;;;;12.43;4.90;;;8.70;1.00;;;;;;5073786;28;20248;-65
2023/05/27 03:08:26;;;;;;;9.53;4.17;;;8.70;1.00;;;;;;5073921;28;20442;-68
2023/05/27 03:10:52;;;;;;;7.70;3.60;;;8.60;1.00;;;;;;5072942;28;20170;-68
2023/05/27 03:13:18;;;;;;;11.47;4.37;;;8.60;1.00;;;;;;5073700;28;20227;-66
2023/05/27 03:15:43;;;;;;;6.63;4.23;;;8.60;1.00;;;;;;5073665;28;20177;-68
2023/05/27 03:18:09;;;;;;;12.97;4.60;;;8.60;1.00;;;;;;5072387;28;20179;-65
2023/05/27 03:20:35;;;;;;;9.90;4.77;;;8.60;1.00;;;;;;5072907;28;20263;-65
2023/05/27 03:23:00;;;;;;;11.23;4.77;;;8.50;1.00;;;;;;5073751;28;20189;-68
2023/05/27 03:25:26;;;;;;;9.47;4.63;;;8.50;1.00;;;;;;5073485;28;20186;-68
2023/05/27 03:27:53;;;;;;;12.07;4.97;;;8.50;1.00;;;;;;5073461;28;20893;-66
2023/05/27 03:30:19;;;;;;;14.13;5.93;;;8.50;1.00;;;;;;5072607;28;20178;-69
2023/05/27 03:32:45;;;;;;;7.80;4.00;;;8.50;1.00;;;;;;5073433;28;20423;-68
2023/05/27 03:35:11;;;;;;;10.07;3.83;;;8.60;1.00;;;;;;5073066;28;20411;-65
2023/05/27 03:37:36;;;;;;;7.63;4.33;;;8.60;1.00;;;;;;5072723;28;20500;-64
2023/05/27 03:40:03;;;;;;;5.70;3.73;;;8.60;1.00;;;;;;5073164;28;20170;-66
2023/05/27 03:42:29;;;;;;;14.43;5.70;;;8.50;1.00;;;;;;5072864;28;20164;-65
2023/05/27 03:44:55;;;;;;;6.40;4.00;;;8.60;1.00;;;;;;5073411;28;20715;-68
2023/05/27 03:47:21;;;;;;;13.30;4.20;;;8.60;1.00;;;;;;5073547;28;20437;-68
2023/05/27 03:49:48;;;;;;;11.47;4.17;;;8.60;1.00;;;;;;5073210;28;20175;-66
2023/05/27 03:52:14;;;;;;;10.83;5.10;;;8.60;1.00;;;;;;5076766;28;20924;-66
2023/05/27 03:54:41;;;;;;;7.77;4.93;;;8.60;1.00;;;;;;5093432;28;20398;-68
2023/05/27 03:57:07;;;;;;;8.10;4.03;;;8.60;1.00;;;;;;5093338;28;20800;-65
2023/05/27 03:59:33;;;;;;;10.37;4.10;;;8.70;1.00;;;;;;5093446;28;20398;-69
2023/05/27 04:01:59;;;;;;;15.63;9.17;;;8.70;1.00;;;;;;5092311;28;20200;-69
2023/05/27 04:04:24;;;;;;;16.17;7.17;;;8.70;1.00;;;;;;5093201;28;20920;-66
2023/05/27 04:06:50;;;;;;;13.63;6.90;;;8.70;1.00;;;;;;5093405;28;20534;-68
2023/05/27 04:09:16;;;;;;;6.93;4.50;;;8.80;1.00;;;;;;5073997;28;20679;-64
2023/05/27 04:11:42;;;;;;;9.20;4.80;;;8.80;1.00;;;;;;5072090;28;20174;-68
2023/05/27 04:14:07;;;;;;;12.13;4.70;;;8.80;1.00;;;;;;5072958;28;20425;-68
2023/05/27 04:16:33;;;;;;;8.90;4.43;;;8.80;1.00;;;;;;5072829;28;20658;-66
2023/05/27 04:19:00;;;;;;;14.23;5.57;;;8.90;1.00;;;;;;5072919;28;20519;-68
2023/05/27 04:21:26;;;;;;;14.53;4.57;;;8.90;1.00;;;;;;5072130;28;20397;-65
2023/05/27 04:23:52;;;;;;;13.97;4.50;;;9.00;1.00;;;;;;5072732;28;20421;-65
2023/05/27 04:26:18;;;;;;;11.20;4.23;;;9.00;1.00;;;;;;5071921;28;20435;-67
2023/05/27 04:28:45;;;;;;;8.23;4.30;;;9.00;1.00;;;;;;5072437;28;20174;-71
2023/05/27 04:31:12;;;;;;;9.83;4.40;;;9.10;1.00;;;;;;5072136;28;20405;-67
2023/05/27 04:33:45;;;;;;;8.10;4.23;;;9.20;1.00;;;;;;5072810;28;20826;-67
2023/05/27 04:36:10;;;;;;;17.77;4.83;;;9.20;1.00;;;;;;5072977;28;20468;-71
2023/05/27 04:38:36;;;;;;;13.00;4.33;;;9.30;1.00;;;;;;5072881;28;20453;-71
2023/05/27 04:41:03;;;;;;;13.20;4.77;;;9.40;1.00;;;;;;5072288;28;20523;-68
2023/05/27 04:43:30;;;;;;;7.33;4.53;;;9.40;1.00;;;;;;5071704;28;20217;-67
2023/05/27 04:45:59;;;;;;;7.50;5.10;;;9.50;1.00;;;;;;5072530;28;20404;-71
2023/05/27 04:48:25;;;;;;;13.43;4.60;;;9.50;1.00;;;;;;5072499;28;20450;-69
2023/05/27 04:50:53;;;;;;;23.83;6.80;;;9.60;1.00;;;;;;5071676;28;20790;-71
2023/05/27 04:53:19;;;;;;;17.57;5.23;;;9.70;1.00;;;;;;5072670;28;20830;-71
2023/05/27 04:55:46;;;;;;;9.87;5.80;;;9.70;1.00;;;;;;5072623;28;20857;-71
2023/05/27 04:58:12;;;;;;;13.97;5.17;;;9.80;1.00;;;;;;5072736;28;20479;-68
2023/05/27 05:00:49;;;;;;;11.57;5.80;;;9.90;1.00;;;;;;5071071;28;20790;-71
2023/05/27 05:03:22;;;;;;;12.97;6.00;;;10.00;1.00;;;;;;5072303;28;20797;-71
2023/05/27 05:05:52;;;;;;;13.50;5.00;;;10.00;1.00;;;;;;5075822;28;20908;-68
2023/05/27 05:08:21;;;;;;;11.03;5.27;;;10.10;1.00;;;;;;5076131;28;20775;-72
2023/05/27 05:10:47;;;;;;;17.27;5.50;;;10.20;6.30;;;;;;5075183;28;20371;-72
2023/05/27 05:13:14;;;;;;;15.27;5.77;;;10.20;15.60;;;;;;5075910;28;20482;-68
2023/05/27 05:15:40;;;;;;;14.80;5.30;;;10.30;24.30;;;;;;5075238;28;20386;-68
2023/05/27 05:18:06;;;;;;;21.17;6.00;;;10.30;29.50;;;;;;5075666;28;20394;-68
2023/05/27 05:20:32;;;;;;;14.23;4.70;;;10.40;35.30;;;;;;5074528;28;20383;-68
2023/05/27 05:22:58;;;;;;;17.00;6.40;;;10.50;45.80;;;;;;5075602;28;20189;-69
2023/05/27 05:25:24;;;;;;;26.00;6.30;;;10.50;52.30;;;;;;5075734;28;20398;-72
2023/05/27 05:27:51;;;;;;;16.17;5.40;;;10.60;54.00;;;;;;5075818;28;20404;-72
2023/05/27 05:30:17;;;;;;;13.17;5.23;;;10.70;60.70;;;;;;5074725;28;20247;-72
2023/05/27 05:32:42;;;;;;;20.47;5.47;;;10.70;59.00;;;;;;5074579;28;20955;-72
2023/05/27 05:35:08;;;;;;;15.40;5.60;;;10.80;58.40;;;;;;5075540;28;20277;-68
2023/05/27 05:37:34;;;;;;;20.30;4.23;;;10.80;56.40;;;;;;5075518;28;20209;-68
2023/05/27 05:40:00;;;;;;;14.17;5.33;;;10.90;61.00;;;;;;5073626;28;20186;-67
2023/05/27 05:42:25;;;;;;;25.57;9.17;;;10.90;63.40;;;;;;5074812;28;20174;-72
2023/05/27 05:44:52;;;;;;;19.03;7.30;;;11.00;64.90;;;;;;5075402;28;20616;-69
2023/05/27 05:47:18;;;;;;;19.30;7.10;;;11.10;63.90;;;;;;5075170;28;20170;-72
2023/05/27 05:49:44;;;;;;;16.33;5.17;;;11.10;57.60;;;;;;5075393;28;20701;-68
2023/05/27 05:52:10;;;;;;;17.03;5.77;;;11.10;54.90;;;;;;5074188;28;20394;-72
2023/05/27 05:54:36;;;;;;;20.90;5.80;;;11.10;53.00;;;;;;5075366;28;20268;-68
2023/05/27 05:57:05;;;;;;;16.60;5.73;;;11.10;56.90;;;;;;5074989;28;20209;-73
2023/05/27 05:59:31;;;;;;;26.63;6.10;;;11.20;62.50;;;;;;5075000;28;20212;-69
2023/05/27 06:01:57;;;;;;;15.90;5.60;;;11.20;66.30;;;;;;5074131;28;20367;-72
2023/05/27 06:04:23;;;;;;;24.10;5.60;;;11.30;69.30;;;;;;5075077;28;20186;-69
2023/05/27 06:06:49;;;;;;;14.30;5.97;;;11.30;67.00;;;;;;5075098;28;20561;-71
2023/05/27 06:09:15;;;;;;;20.43;5.70;;;11.30;61.80;;;;;;5074790;28;20379;-72
2023/05/27 06:11:40;;;;;;;17.60;6.33;;;11.30;48.70;;;;;;5073209;28;20311;-71
2023/05/27 06:14:07;;;;;;;25.13;6.70;;;11.10;31.80;;;;;;5074666;28;20519;-68
2023/05/27 06:16:35;;;;;;;15.77;5.73;;;11.30;46.40;;;;;;5073842;28;20533;-68
2023/05/27 06:19:01;;;;;;;14.23;6.07;;;11.40;52.30;;;;;;5074642;28;20392;-71
2023/05/27 06:21:29;;;;;;;12.97;5.60;;;11.40;52.00;;;;;;5072364;28;20405;-69
2023/05/27 06:23:55;;;;;;;14.10;5.80;;;11.50;54.60;;;;;;5074557;28;20496;-71
2023/05/27 06:26:21;;;;;;;18.10;6.97;;;11.60;58.50;;;;;;5073872;28;20447;-71
2023/05/27 06:28:46;;;;;;;13.10;6.50;;;11.70;47.20;;;;;;5074524;28;20170;-71
2023/05/27 06:31:12;;;;;;;12.10;5.50;;;11.70;19.30;;;;;;5073396;28;20175;-71
2023/05/27 06:33:38;;;;;;;15.50;6.03;;;11.70;12.60;;;;;;5074159;28;20211;-72
2023/05/27 06:36:04;;;;;;;18.07;6.00;;;11.80;9.90;;;;;;5073866;28;20659;-71
2023/05/27 06:38:29;;;;;;;19.93;6.23;;;11.90;2.20;;;;;;5074403;28;20166;-68
2023/05/27 06:40:55;;;;;;;15.23;6.37;;;12.00;1.00;;;;;;5073519;28;20243;-68
2023/05/27 06:43:21;;;;;;;23.03;6.70;;;11.90;1.00;;;;;;5072994;28;20248;-71
2023/05/27 06:45:47;;;;;;;31.00;6.97;;;12.00;1.00;;;;;;5074184;28;20401;-71
2023/05/27 06:48:12;;;;;;;18.37;6.00;;;12.10;1.00;;;;;;5074345;28;20173;-71
2023/05/27 06:50:38;;;;;;;15.50;5.90;;;12.10;1.00;;;;;;5073314;28;20170;-72
2023/05/27 06:53:04;;;;;;;14.73;6.03;;;12.10;1.00;;;;;;5073675;28;20197;-71
2023/05/27 06:55:30;;;;;;;21.73;7.13;;;12.30;1.00;;;;;;5074061;28;20241;-68
2023/05/27 06:57:56;;;;;;;16.93;4.57;;;12.40;1.00;;;;;;5074089;28;20201;-69
2023/05/27 07:00:21;;;;;;;12.13;4.93;;;12.30;1.00;;;;;;5072477;28;20413;-71
2023/05/27 07:02:47;;;;;;;18.37;5.57;;;12.30;1.00;;;;;;5073880;28;20247;-68
2023/05/27 07:05:13;;;;;;;20.23;5.90;;;12.40;1.00;;;;;;5073978;28;20253;-68
2023/05/27 07:07:38;;;;;;;14.63;5.60;;;12.40;1.00;;;;;;5073614;28;20186;-72
2023/05/27 07:10:05;;;;;;;14.33;7.23;;;12.50;1.00;;;;;;5072988;28;20171;-74
2023/05/27 07:12:30;;;;;;;25.23;5.73;;;12.60;1.00;;;;;;5073737;28;20669;-69
2023/05/27 07:14:56;;;;;;;11.50;4.90;;;12.60;1.00;;;;;;5073722;28;20371;-71
2023/05/27 07:17:22;;;;;;;7.93;4.67;;;12.70;1.00;;;;;;5072898;28;20605;-69
2023/05/27 07:19:47;;;;;;;16.53;5.63;;;12.50;1.00;;;;;;5073436;28;20158;-75
2023/05/27 07:22:13;;;;;;;17.43;5.47;;;12.50;1.00;;;;;;5072849;28;20166;-72
2023/05/27 07:24:39;;;;;;;14.13;4.50;;;12.60;1.00;;;;;;5073684;28;20174;-71
2023/05/27 07:27:06;;;;;;;17.17;5.73;;;12.70;1.00;;;;;;5071561;28;20534;-68
2023/05/27 07:29:33;;;;;;;18.27;5.87;;;12.80;1.00;;;;;;5073020;28;20437;-70
2023/05/27 07:31:58;;;;;;;10.77;4.97;;;12.80;1.00;;;;;;5072514;28;20406;-72
2023/05/27 07:34:24;;;;;;;20.07;5.30;;;13.00;1.00;;;;;;5072596;28;20836;-71
2023/05/27 07:36:50;;;;;;;16.63;4.83;;;13.10;1.00;;;;;;5073281;28;20197;-69
2023/05/27 07:39:16;;;;;;;12.93;4.97;;;13.20;1.00;;;;;;5073720;28;20476;-68
2023/05/27 07:41:41;;;;;;;20.60;6.03;;;13.30;1.00;;;;;;5072397;28;20220;-71
2023/05/27 07:44:09;;;;;;;13.10;5.30;;;13.40;1.00;;;;;;5073385;28;20182;-69
2023/05/27 07:46:38;;;;;;;11.50;5.17;;;13.50;1.00;;;;;;5073499;28;20173;-69
2023/05/27 07:49:05;;;;;;;21.03;7.53;;;13.70;1.00;;;;;;5072247;28;20900;-69
2023/05/27 07:51:31;;;;;;;14.17;6.20;;;13.70;1.00;;;;;;5072496;28;20911;-71
2023/05/27 07:53:57;;;;;;;13.33;4.83;;;13.90;1.00;;;;;;5073186;28;20940;-71
2023/05/27 07:56:23;;;;;;;17.33;4.27;;;14.10;1.00;;;;;;5073315;28;20452;-71
2023/05/27 07:58:49;;;;;;;20.53;4.73;;;14.20;1.00;;;;;;5073291;28;20404;-69
2023/05/27 08:01:15;;;;;;;8.60;4.87;;;14.40;1.00;;;;;;5072584;28;20189;-69
2023/05/27 08:03:40;;;;;;;10.97;4.60;;;14.50;1.00;;;;;;5073236;28;20417;-69
2023/05/27 08:06:07;;;;;;;11.00;4.47;;;14.50;1.00;;;;;;5072144;28;20273;-71
2023/05/27 08:08:32;;;;;;;11.27;4.40;;;14.60;1.00;;;;;;5072814;28;20174;-71
2023/05/27 08:10:58;;;;;;;16.33;5.00;;;14.70;1.00;;;;;;5072331;28;20427;-71
2023/05/27 08:13:24;;;;;;;10.73;5.03;;;14.80;1.00;;;;;;5073045;28;20190;-71
2023/05/27 08:15:50;;;;;;;9.77;4.80;;;14.80;1.00;;;;;;5071596;28;20599;-72
2023/05/27 08:18:16;;;;;;;9.17;4.50;;;14.90;1.00;;;;;;5071673;28;20383;-71
2023/05/27 08:20:42;;;;;;;12.63;5.03;;;15.10;1.00;;;;;;5072129;28;20163;-71
2023/05/27 08:23:07;;;;;;;17.47;5.27;;;15.20;1.00;;;;;;5072247;28;20198;-69
2023/05/27 08:25:33;;;;;;;8.90;4.20;;;15.30;1.00;;;;;;5072553;28;20252;-69
2023/05/27 08:28:02;;;;;;;16.47;6.30;;;15.50;1.00;;;;;;5072781;28;20170;-72
2023/05/27 08:30:29;;;;;;;12.33;4.97;;;15.60;1.00;;;;;;5071919;28;20254;-72
2023/05/27 08:32:55;;;;;;;13.40;5.67;;;15.60;1.00;;;;;;5072614;28;20479;-69
2023/05/27 08:35:21;;;;;;;16.77;4.33;;;15.60;1.00;;;;;;5071839;28;20959;-71
2023/05/27 08:37:47;;;;;;;13.17;5.03;;;15.50;1.00;;;;;;5073307;28;20539;-69
2023/05/27 08:40:15;;;;;;;9.33;4.60;;;15.50;1.00;;;;;;5075671;28;20219;-72
2023/05/27 08:42:41;;;;;;;11.73;5.90;;;15.40;1.00;;;;;;5076243;28;20420;-71
2023/05/27 08:45:08;;;;;;;15.90;5.00;;;15.30;99.90;;;;;;5076251;28;20395;-69
2023/05/27 08:47:34;;;;;;;18.43;4.90;;;15.50;99.90;;;;;;5075903;28;20424;-69
2023/05/27 08:50:01;;;;;;;16.53;4.47;;;15.70;1.00;;;;;;5074872;28;20419;-71
2023/05/27 08:52:30;;;;;;;10.63;3.80;;;15.80;99.90;;;;;;5075747;28;20865;-70
2023/05/27 08:54:59;;;;;;;17.03;4.40;;;15.90;99.90;;;;;;5075088;28;20486;-71
2023/05/27 08:57:30;;;;;;;15.90;5.30;;;16.10;99.90;;;;;;5076423;28;20451;-71
2023/05/27 09:00:11;;;;;;;10.10;4.97;;;16.50;99.90;;;;;;5076159;28;20425;-71
2023/05/27 09:02:37;;;;;;;16.00;4.10;;;16.70;99.90;;;;;;5076058;28;20417;-71
2023/05/27 09:05:03;;;;;;;13.40;4.60;;;16.80;99.90;;;;;;5074908;28;20432;-71
2023/05/27 09:07:29;;;;;;;7.70;5.07;;;16.90;99.90;;;;;;5076084;28;20399;-71
2023/05/27 09:09:56;;;;;;;11.63;4.67;;;16.80;99.90;;;;;;5075967;28;20836;-72
2023/05/27 09:12:26;;;;;;;12.53;4.13;;;16.60;99.90;;;;;;5075332;28;20162;-70
2023/05/27 09:14:54;;;;;;;10.50;4.87;;;16.50;99.90;;;;;;5091724;28;20412;-72
2023/05/27 09:17:22;;;;;;;10.07;4.93;;;16.70;99.90;;;;;;5075958;28;20444;-70
2023/05/27 09:19:50;;;;;;;9.60;3.83;;;17.00;99.90;;;;;;5075830;28;20396;-74
2023/05/27 09:22:24;;;;;;;14.03;5.53;;;17.40;99.90;;;;;;5073841;28;20968;-72
2023/05/27 09:24:53;;;;;;;9.00;3.73;;;17.50;99.90;;;;;;5075612;28;20836;-70
2023/05/27 09:27:23;;;;;;;10.70;3.73;;;17.70;99.90;;;;;;5075816;28;20404;-71
2023/05/27 09:29:49;;;;;;;16.10;3.60;;;18.00;99.90;;;;;;5074593;28;20491;-72
2023/05/27 09:32:30;;;;;;;11.77;4.47;;;18.20;99.90;;;;;;5073891;28;20520;-70
2023/05/27 09:34:57;;;;;;;8.70;3.70;;;18.40;99.90;;;;;;5075521;28;20661;-71
2023/05/27 09:37:34;;;;;;;7.07;4.00;;;18.60;99.90;;;;;;5075707;28;20448;-71
2023/05/27 09:40:04;;;;;;;13.90;4.30;;;18.90;99.90;;;;;;5075321;28;20400;-70
2023/05/27 09:42:43;;;;;;;10.30;3.70;;;19.10;99.90;;;;;;5074862;28;20446;-72
2023/05/27 09:45:18;;;;;;;7.43;4.00;;;19.40;99.90;;;;;;5075609;28;20388;-71
2023/05/27 09:47:52;;;;;;;10.87;4.20;;;19.70;99.90;;;;;;5074538;28;20388;-71
2023/05/27 09:50:22;;;;;;;12.40;4.53;;;20.00;99.90;;;;;;5073741;28;20411;-72
2023/05/27 09:52:50;;;;;;;8.67;3.50;;;20.40;99.90;;;;;;5075257;28;20510;-72
2023/05/27 09:55:17;;;;;;;12.47;3.90;;;20.70;99.90;;;;;;5075725;28;20408;-72
2023/05/27 09:57:44;;;;;;;9.40;3.70;;;21.10;99.90;;;;;;5075200;28;20471;-71
2023/05/27 10:00:11;;;;;;;20.27;3.90;;;21.30;99.90;;;;;;5074338;28;20900;-72
2023/05/27 10:02:45;;;;;;;10.13;3.67;;;21.50;99.90;;;;;;5074752;28;20413;-72
2023/05/27 10:05:16;;;;;;;6.33;3.33;;;21.70;99.90;;;;;;5074071;28;20428;-72
2023/05/27 10:07:44;;;;;;;9.43;3.90;;;21.60;99.90;;;;;;5073880;28;20448;-72
2023/05/27 10:10:14;;;;;;;11.23;4.67;;;21.70;99.90;;;;;;5074322;28;20438;-73
2023/05/27 10:12:41;;;;;;;6.10;3.80;;;21.90;99.90;;;;;;5073590;28;20435;-71
2023/05/27 10:15:07;;;;;;;7.53;3.70;;;21.70;99.90;;;;;;5074808;28;20834;-72
2023/05/27 10:17:47;;;;;;;4.80;2.97;;;21.50;99.90;;;;;;5074907;28;20472;-71
2023/05/27 10:20:26;;;;;;;5.97;3.83;;;21.50;99.90;;;;;;5072943;28;20415;-74
2023/05/27 10:22:52;;;;;;;7.63;3.97;;;21.60;99.90;;;;;;5074343;28;20412;-73
2023/05/27 10:25:18;;;;;;;5.90;3.40;;;21.80;99.90;;;;;;5074563;28;20561;-72
2023/05/27 10:27:47;;;;;;;9.57;4.53;;;21.70;99.90;;;;;;5074641;28;20162;-72
2023/05/27 10:30:14;;;;;;;8.23;3.57;;;22.00;99.90;;;;;;5073721;28;20509;-73
2023/05/27 10:32:47;;;;;;;12.23;5.67;;;22.30;99.90;;;;;;5074404;28;20941;-73
2023/05/27 10:35:13;;;;;;;9.57;4.53;;;22.40;99.90;;;;;;5074334;28;20412;-73
2023/05/27 10:37:41;;;;;;;11.33;4.30;;;22.80;99.90;;;;;;5073264;28;20467;-73
2023/05/27 10:40:07;;;;;;;13.40;3.97;;;22.60;99.90;;;;;;5088723;28;20177;-74
2023/05/27 10:42:33;;;;;;;7.30;4.00;;;22.60;99.90;;;;;;5073080;28;20440;-72
2023/05/27 10:45:11;;;;;;;9.23;3.33;;;23.00;99.90;;;;;;5074224;28;20749;-73
2023/05/27 10:47:37;;;;;;;7.83;4.67;;;23.40;99.90;;;;;;5074176;28;20249;-73
2023/05/27 10:50:11;;;;;;;7.10;4.47;;;23.70;99.90;;;;;;5074088;28;20813;-74
2023/05/27 10:52:39;;;;;;;6.60;4.43;;;24.00;99.90;;;;;;5073361;28;20713;-73
2023/05/27 10:55:08;;;;;;;8.47;4.13;;;23.90;99.90;;;;;;5074213;28;20893;-74
2023/05/27 10:57:35;;;;;;;6.63;3.47;;;23.90;99.90;;;;;;5073713;28;20456;-74
2023/05/27 11:00:09;;;;;;;7.73;4.40;;;24.20;99.90;;;;;;5073740;28;20397;-73
2023/05/27 11:02:37;;;;;;;10.90;4.37;;;24.10;99.90;;;;;;5074113;28;20409;-73
2023/05/27 11:05:14;;;;;;;7.60;4.70;;;24.10;99.90;;;;;;5074041;28;20392;-74
2023/05/27 11:07:41;;;;;;;6.87;3.67;;;24.20;99.90;;;;;;5073880;28;20400;-73
2023/05/27 11:10:08;;;;;;;8.37;4.03;;;24.40;99.90;;;;;;5072176;28;20443;-74
2023/05/27 11:12:34;;;;;;;7.27;4.83;;;24.50;99.90;;;;;;5073729;28;20420;-73
2023/05/27 11:15:00;;;;;;;8.57;4.30;;;24.60;99.90;;;;;;5073773;28;20396;-74
2023/05/27 11:17:26;;;;;;;12.87;4.50;;;24.80;99.90;;;;;;5073119;28;20444;-74
2023/05/27 11:19:53;;;;;;;8.50;4.50;;;25.00;99.90;;;;;;5073269;28;20166;-73
2023/05/27 11:22:19;;;;;;;5.60;3.90;;;25.30;99.90;;;;;;5073002;28;20488;-73
2023/05/27 11:25:01;;;;;;;9.83;4.10;;;25.20;99.90;;;;;;5072536;28;20447;-73
2023/05/27 11:27:35;;;;;;;11.60;4.70;;;25.40;99.90;;;;;;5072738;28;20428;-73
2023/05/27 11:30:09;;;;;;;9.73;4.43;;;25.60;99.90;;;;;;5073267;28;20804;-73
2023/05/27 11:32:35;;;;;;;10.83;4.43;;;25.60;99.90;;;;;;5073475;28;20426;-72
2023/05/27 11:35:01;;;;;;;8.80;4.00;;;25.30;99.90;;;;;;5073080;28;20840;-73
2023/05/27 11:37:34;;;;;;;8.90;3.90;;;25.20;99.90;;;;;;5073293;28;20243;-73
2023/05/27 11:40:00;;;;;;;9.70;4.50;;;25.10;99.90;;;;;;5073168;28;20203;-74
2023/05/27 11:42:28;;;;;;;11.97;4.83;;;25.30;99.90;;;;;;5072755;28;20389;-73
2023/05/27 11:44:54;;;;;;;7.37;4.00;;;25.00;99.90;;;;;;5085776;28;20432;-73
2023/05/27 11:47:21;;;;;;;12.77;5.23;;;25.40;99.90;;;;;;5093733;28;20872;-73
2023/05/27 11:49:49;;;;;;;10.47;3.87;;;26.10;99.90;;;;;;5093498;28;20760;-75
2023/05/27 11:52:14;;;;;;;6.20;3.80;;;26.00;99.90;;;;;;5092208;28;20411;-74
2023/05/27 11:54:40;;;;;;;16.93;5.87;;;25.60;99.90;;;;;;5093667;28;20395;-73
2023/05/27 11:57:07;;;;;;;9.60;4.83;;;24.50;99.90;;;;;;5093452;28;20201;-73
2023/05/27 11:59:34;;;;;;;9.57;4.30;;;23.80;99.90;;;;;;5087612;28;20630;-73
2023/05/27 12:02:00;;;;;;;6.23;4.00;;;23.60;99.90;;;;;;5072436;28;20397;-73
2023/05/27 12:04:26;;;;;;;11.20;4.73;;;24.40;99.90;;;;;;5073081;28;20523;-73
2023/05/27 12:06:52;;;;;;;10.70;3.83;;;25.50;99.90;;;;;;5073351;28;20170;-73
2023/05/27 12:09:17;;;;;;;9.20;4.80;;;26.50;99.90;;;;;;5072855;28;20241;-73
2023/05/27 12:11:43;;;;;;;10.47;4.63;;;26.60;99.90;;;;;;5072161;28;20166;-73
2023/05/27 12:14:09;;;;;;;12.67;5.43;;;26.10;99.90;;;;;;5075802;28;20671;-72
2023/05/27 12:16:35;;;;;;;9.40;4.70;;;26.30;99.90;;;;;;5076188;28;20201;-72
2023/05/27 12:19:00;;;;;;;8.27;3.27;;;25.90;99.90;;;;;;5077154;28;20458;-73
2023/05/27 12:21:26;;;;;;;10.20;4.23;;;26.10;99.90;;;;;;5076284;28;20174;-74
2023/05/27 12:23:52;;;;;;;10.07;4.70;;;26.40;99.90;;;;;;5076799;28;20705;-73
2023/05/27 12:26:18;;;;;;;9.10;4.30;;;26.10;99.90;;;;;;5076933;28;20193;-73
2023/05/27 12:28:44;;;;;;;10.60;4.13;;;25.90;99.90;;;;;;5076525;28;20205;-71
2023/05/27 12:31:10;;;;;;;13.00;5.07;;;25.60;99.90;;;;;;5076094;28;20185;-71
2023/05/27 12:33:36;;;;;;;9.77;4.27;;;25.60;99.90;;;;;;5075929;28;20982;-71
2023/05/27 12:36:05;;;;;;;7.17;4.07;;;25.60;99.90;;;;;;5076598;28;20170;-73
2023/05/27 12:38:31;;;;;;;13.17;4.37;;;25.10;99.90;;;;;;5076675;28;20434;-73
2023/05/27 12:40:57;;;;;;;10.10;5.17;;;23.70;99.90;;;;;;5075930;28;20953;-72
2023/05/27 12:43:24;;;;;;;12.73;5.13;;;23.20;99.90;;;;;;5076651;28;20499;-73
2023/05/27 12:45:50;;;;;;;13.03;4.43;;;23.00;99.90;;;;;;5076118;28;20393;-74
2023/05/27 12:48:17;;;;;;;14.80;4.10;;;22.70;99.90;;;;;;5076397;28;20404;-73